createdAt,value
2017-07-28T00:00:18.022Z,0
2017-07-28T00:01:18.771Z,0
2017-07-28T00:02:19.475Z,0
2017-07-28T00:03:20.176Z,0
2017-07-28T00:04:20.889Z,0
2017-07-28T00:05:21.589Z,0
2017-07-28T00:06:22.540Z,0
2017-07-28T00:07:23.238Z,0
2017-07-28T00:08:23.944Z,0
2017-07-28T00:09:24.645Z,0
2017-07-28T00:10:25.346Z,0
2017-07-28T00:11:26.048Z,0
2017-07-28T00:12:26.743Z,0
2017-07-28T00:13:27.445Z,0
2017-07-28T00:14:28.146Z,0
2017-07-28T00:15:28.851Z,0
2017-07-28T00:16:29.809Z,0
2017-07-28T00:17:30.513Z,0
2017-07-28T00:18:31.214Z,0
2017-07-28T00:19:31.915Z,0
2017-07-28T00:20:32.613Z,0
2017-07-28T00:21:33.580Z,0
2017-07-28T00:22:34.283Z,0
2017-07-28T00:23:34.986Z,0
2017-07-28T00:24:35.693Z,0
2017-07-28T00:25:36.396Z,0
2017-07-28T00:26:37.349Z,0
2017-07-28T00:27:38.050Z,0
2017-07-28T00:28:38.755Z,0
2017-07-28T00:29:39.457Z,0
2017-07-28T00:30:40.156Z,0
2017-07-28T00:31:41.107Z,0
2017-07-28T00:32:41.807Z,0
2017-07-28T00:33:42.510Z,0
2017-07-28T00:34:43.208Z,0
2017-07-28T00:35:43.909Z,0
2017-07-28T00:36:44.862Z,0
2017-07-28T00:37:45.568Z,0
2017-07-28T00:38:46.271Z,0
2017-07-28T00:39:46.974Z,0
2017-07-28T00:40:47.674Z,0
2017-07-28T00:41:48.619Z,0
2017-07-28T00:42:49.321Z,0
2017-07-28T00:43:50.022Z,0
2017-07-28T00:44:50.719Z,0
2017-07-28T00:45:51.416Z,0
2017-07-28T00:46:52.368Z,0
2017-07-28T00:47:53.067Z,0
2017-07-28T00:48:53.768Z,0
2017-07-28T00:49:54.469Z,0
2017-07-28T00:50:55.171Z,0
2017-07-28T00:51:56.118Z,0
2017-07-28T00:52:56.832Z,0
2017-07-28T00:53:57.531Z,0
2017-07-28T00:54:58.234Z,0
2017-07-28T00:55:58.932Z,0
2017-07-28T00:56:59.878Z,0
2017-07-28T00:58:00.578Z,0
2017-07-28T00:59:01.278Z,0
2017-07-28T01:00:01.980Z,0
2017-07-28T01:01:02.677Z,0
2017-07-28T01:02:03.632Z,0
2017-07-28T01:03:04.329Z,0
2017-07-28T01:04:05.029Z,0
2017-07-28T01:05:05.728Z,0
2017-07-28T01:06:06.425Z,0
2017-07-28T01:07:07.379Z,0
2017-07-28T01:08:08.076Z,0
2017-07-28T01:09:08.775Z,0
2017-07-28T01:10:09.474Z,0
2017-07-28T01:11:10.173Z,0
2017-07-28T01:12:10.873Z,0
2017-07-28T01:13:11.569Z,0
2017-07-28T01:14:12.264Z,0
2017-07-28T01:15:12.964Z,0
2017-07-28T01:16:13.659Z,0
2017-07-28T01:17:14.611Z,0
2017-07-28T01:18:15.308Z,0
2017-07-28T01:19:16.008Z,0
2017-07-28T01:20:16.708Z,0
2017-07-28T01:21:17.409Z,0
2017-07-28T01:22:18.360Z,0
2017-07-28T01:23:19.058Z,0
2017-07-28T01:24:19.760Z,0
2017-07-28T01:25:20.457Z,0
2017-07-28T01:26:21.162Z,0
2017-07-28T01:27:22.117Z,0
2017-07-28T01:28:22.823Z,0
2017-07-28T01:29:23.522Z,0
2017-07-28T01:30:24.224Z,0
2017-07-28T01:31:24.926Z,0
2017-07-28T01:32:25.880Z,0
2017-07-28T01:33:26.580Z,0
2017-07-28T01:34:27.278Z,0
2017-07-28T01:35:27.979Z,0
2017-07-28T01:36:28.679Z,0
2017-07-28T01:37:29.628Z,0
2017-07-28T01:38:30.330Z,0
2017-07-28T01:39:31.028Z,0
2017-07-28T01:40:31.726Z,0
2017-07-28T01:41:32.426Z,0
2017-07-28T01:42:33.384Z,0
2017-07-28T01:43:34.081Z,0
2017-07-28T01:44:34.788Z,0
2017-07-28T01:45:35.490Z,0
2017-07-28T01:46:36.194Z,0
2017-07-28T01:47:37.142Z,0
2017-07-28T01:48:37.838Z,0
2017-07-28T01:49:38.546Z,0
2017-07-28T01:50:39.243Z,0
2017-07-28T01:51:39.945Z,0
2017-07-28T01:52:40.899Z,0
2017-07-28T01:53:41.600Z,0
2017-07-28T01:54:42.297Z,0
2017-07-28T01:55:42.994Z,0
2017-07-28T01:56:43.697Z,0
2017-07-28T01:57:44.648Z,0
2017-07-28T01:58:45.353Z,0
2017-07-28T01:59:46.054Z,0
2017-07-28T02:00:46.752Z,0
2017-07-28T02:01:47.455Z,0
2017-07-28T02:02:48.406Z,0
2017-07-28T02:03:49.109Z,0
2017-07-28T02:04:49.813Z,0
2017-07-28T02:05:50.514Z,0
2017-07-28T02:06:51.206Z,0
2017-07-28T02:07:52.154Z,0
2017-07-28T02:08:52.857Z,0
2017-07-28T02:09:53.558Z,0
2017-07-28T02:10:54.261Z,0
2017-07-28T02:11:54.960Z,0
2017-07-28T02:12:55.917Z,0
2017-07-28T02:13:56.620Z,0
2017-07-28T02:14:57.320Z,0
2017-07-28T02:15:58.020Z,0
2017-07-28T02:16:58.723Z,0
2017-07-28T02:17:59.672Z,0
2017-07-28T02:19:00.370Z,0
2017-07-28T02:20:01.068Z,0
2017-07-28T02:21:01.768Z,0
2017-07-28T02:22:02.470Z,0
2017-07-28T02:23:03.422Z,0
2017-07-28T02:24:04.124Z,0
2017-07-28T02:25:04.826Z,0
2017-07-28T02:26:05.530Z,0
2017-07-28T02:27:06.231Z,0
2017-07-28T02:28:07.177Z,0
2017-07-28T02:29:07.873Z,0
2017-07-28T02:30:08.570Z,0
2017-07-28T02:31:09.268Z,0
2017-07-28T02:32:09.980Z,0
2017-07-28T02:33:10.931Z,0
2017-07-28T02:34:11.628Z,0
2017-07-28T02:35:12.336Z,0
2017-07-28T02:36:13.039Z,0
2017-07-28T02:37:13.740Z,0
2017-07-28T02:38:14.746Z,0
2017-07-28T02:39:15.448Z,0
2017-07-28T02:40:16.148Z,0
2017-07-28T02:41:16.847Z,0
2017-07-28T02:42:17.551Z,0
2017-07-28T02:43:18.501Z,0
2017-07-28T02:44:19.201Z,0
2017-07-28T02:45:19.896Z,0
2017-07-28T02:46:20.597Z,0
2017-07-28T02:47:21.303Z,0
2017-07-28T02:48:22.251Z,0
2017-07-28T02:49:22.946Z,0
2017-07-28T02:50:23.645Z,0
2017-07-28T02:51:24.345Z,0
2017-07-28T02:52:25.046Z,0
2017-07-28T02:53:26.000Z,0
2017-07-28T02:54:26.705Z,0
2017-07-28T02:55:27.408Z,0
2017-07-28T02:56:28.104Z,0
2017-07-28T02:57:28.800Z,0
2017-07-28T02:58:29.748Z,0
2017-07-28T02:59:30.445Z,0
2017-07-28T03:00:31.147Z,0
2017-07-28T03:01:31.842Z,0
2017-07-28T03:02:32.548Z,0
2017-07-28T03:03:33.501Z,0
2017-07-28T03:04:34.203Z,0
2017-07-28T03:05:34.905Z,0
2017-07-28T03:06:35.604Z,0
2017-07-28T03:07:36.311Z,0
2017-07-28T03:08:37.262Z,0
2017-07-28T03:09:37.960Z,0
2017-07-28T03:10:38.655Z,0
2017-07-28T03:11:39.352Z,0
2017-07-28T03:12:40.050Z,0
2017-07-28T03:13:40.998Z,0
2017-07-28T03:14:41.701Z,0
2017-07-28T03:15:42.409Z,0
2017-07-28T03:16:43.103Z,0
2017-07-28T03:17:43.798Z,4
2017-07-28T03:18:44.744Z,4
2017-07-28T03:19:45.448Z,0
2017-07-28T03:20:46.149Z,4
2017-07-28T03:21:46.850Z,4
2017-07-28T03:22:47.548Z,4
2017-07-28T03:23:48.495Z,8
2017-07-28T03:24:49.200Z,4
2017-07-28T03:25:49.901Z,8
2017-07-28T03:26:50.602Z,8
2017-07-28T03:27:51.301Z,8
2017-07-28T03:28:52.250Z,12
2017-07-28T03:29:52.947Z,12
2017-07-28T03:30:53.644Z,16
2017-07-28T03:31:54.349Z,16
2017-07-28T03:32:55.055Z,20
2017-07-28T03:33:56.006Z,24
2017-07-28T03:34:56.707Z,28
2017-07-28T03:35:57.408Z,32
2017-07-28T03:36:58.104Z,36
2017-07-28T03:37:58.803Z,40
2017-07-28T03:38:59.753Z,44
2017-07-28T03:40:00.450Z,48
2017-07-28T03:41:01.150Z,56
2017-07-28T03:42:01.851Z,64
2017-07-28T03:43:02.561Z,68
2017-07-28T03:44:03.513Z,72
2017-07-28T03:45:04.210Z,80
2017-07-28T03:46:04.909Z,84
2017-07-28T03:47:05.620Z,92
2017-07-28T03:48:06.320Z,96
2017-07-28T03:49:07.269Z,104
2017-07-28T03:50:07.968Z,112
2017-07-28T03:51:08.668Z,124
2017-07-28T03:52:09.369Z,136
2017-07-28T03:53:10.072Z,140
2017-07-28T03:54:11.023Z,148
2017-07-28T03:55:11.727Z,156
2017-07-28T03:56:12.425Z,168
2017-07-28T03:57:13.128Z,180
2017-07-28T03:58:13.827Z,196
2017-07-28T03:59:14.781Z,212
2017-07-28T04:00:15.481Z,220
2017-07-28T04:01:16.181Z,236
2017-07-28T04:02:16.882Z,244
2017-07-28T04:03:17.591Z,252
2017-07-28T04:04:18.547Z,260
2017-07-28T04:05:19.249Z,272
2017-07-28T04:06:19.957Z,276
2017-07-28T04:07:20.669Z,276
2017-07-28T04:08:21.368Z,284
2017-07-28T04:09:22.321Z,296
2017-07-28T04:10:23.027Z,308
2017-07-28T04:11:23.726Z,320
2017-07-28T04:12:24.426Z,324
2017-07-28T04:13:25.128Z,336
2017-07-28T04:14:25.847Z,356
2017-07-28T04:15:26.553Z,356
2017-07-28T04:16:27.257Z,344
2017-07-28T04:17:27.966Z,332
2017-07-28T04:18:28.668Z,324
2017-07-28T04:19:29.619Z,328
2017-07-28T04:20:30.317Z,336
2017-07-28T04:21:31.024Z,368
2017-07-28T04:22:31.725Z,380
2017-07-28T04:23:32.427Z,408
2017-07-28T04:24:33.381Z,428
2017-07-28T04:25:34.080Z,452
2017-07-28T04:26:34.782Z,476
2017-07-28T04:27:35.487Z,500
2017-07-28T04:28:36.191Z,540
2017-07-28T04:29:37.142Z,592
2017-07-28T04:30:37.845Z,616
2017-07-28T04:31:38.548Z,608
2017-07-28T04:32:39.248Z,612
2017-07-28T04:33:39.950Z,604
2017-07-28T04:34:40.913Z,612
2017-07-28T04:35:41.624Z,620
2017-07-28T04:36:42.334Z,656
2017-07-28T04:37:43.037Z,704
2017-07-28T04:38:43.763Z,724
2017-07-28T04:39:44.469Z,748
2017-07-28T04:40:45.172Z,792
2017-07-28T04:41:45.885Z,840
2017-07-28T04:42:46.591Z,840
2017-07-28T04:43:47.290Z,888
2017-07-28T04:44:48.242Z,924
2017-07-28T04:45:48.939Z,908
2017-07-28T04:46:49.640Z,884
2017-07-28T04:47:50.345Z,912
2017-07-28T04:48:51.047Z,908
2017-07-28T04:49:52.006Z,920
2017-07-28T04:50:52.709Z,928
2017-07-28T04:51:53.412Z,916
2017-07-28T04:52:54.113Z,876
2017-07-28T04:53:54.814Z,880
2017-07-28T04:54:55.765Z,940
2017-07-28T04:55:56.466Z,988
2017-07-28T04:56:57.169Z,904
2017-07-28T04:57:57.888Z,836
2017-07-28T04:58:58.592Z,888
2017-07-28T04:59:59.549Z,1036
2017-07-28T05:01:00.250Z,1196
2017-07-28T05:02:00.951Z,1404
2017-07-28T05:03:01.656Z,1472
2017-07-28T05:04:02.356Z,1484
2017-07-28T05:05:03.305Z,1540
2017-07-28T05:06:04.014Z,1636
2017-07-28T05:07:04.718Z,1680
2017-07-28T05:08:05.422Z,1680
2017-07-28T05:09:06.126Z,1836
2017-07-28T05:10:07.075Z,1932
2017-07-28T05:11:07.777Z,1876
2017-07-28T05:12:08.489Z,1904
2017-07-28T05:13:09.193Z,1832
2017-07-28T05:14:09.894Z,1836
2017-07-28T05:15:10.855Z,1900
2017-07-28T05:16:11.558Z,1804
2017-07-28T05:17:12.260Z,1828
2017-07-28T05:18:12.971Z,1824
2017-07-28T05:19:13.677Z,1840
2017-07-28T05:20:14.640Z,1944
2017-07-28T05:21:15.345Z,1936
2017-07-28T05:22:16.048Z,1876
2017-07-28T05:23:16.749Z,1904
2017-07-28T05:24:17.456Z,1908
2017-07-28T05:25:18.162Z,1908
2017-07-28T05:26:18.865Z,1832
2017-07-28T05:27:19.566Z,1760
2017-07-28T05:28:20.268Z,1728
2017-07-28T05:29:20.972Z,1720
2017-07-28T05:30:21.933Z,1780
2017-07-28T05:31:22.637Z,1788
2017-07-28T05:32:23.340Z,1704
2017-07-28T05:33:24.042Z,1748
2017-07-28T05:34:24.744Z,1960
2017-07-28T05:35:25.701Z,2280
2017-07-28T05:36:26.404Z,2456
2017-07-28T05:37:27.104Z,2452
2017-07-28T05:38:27.806Z,2468
2017-07-28T05:39:28.510Z,2384
2017-07-28T05:40:29.464Z,2340
2017-07-28T05:41:30.169Z,2372
2017-07-28T05:42:30.875Z,2356
2017-07-28T05:43:31.585Z,2364
2017-07-28T05:44:32.288Z,2404
2017-07-28T05:45:32.989Z,2404
2017-07-28T05:46:33.692Z,2444
2017-07-28T05:47:34.394Z,2484
2017-07-28T05:48:35.096Z,2484
2017-07-28T05:49:35.801Z,2528
2017-07-28T05:50:36.755Z,2552
2017-07-28T05:51:37.459Z,2556
2017-07-28T05:52:38.165Z,2548
2017-07-28T05:53:38.871Z,2576
2017-07-28T05:54:39.573Z,2632
2017-07-28T05:55:40.526Z,2664
2017-07-28T05:56:41.233Z,2720
2017-07-28T05:57:41.990Z,2756
2017-07-28T05:58:42.705Z,2756
2017-07-28T05:59:43.408Z,2768
2017-07-28T06:00:44.383Z,2832
2017-07-28T06:01:45.090Z,2852
2017-07-28T06:02:45.822Z,2860
2017-07-28T06:03:46.543Z,2848
2017-07-28T06:04:47.247Z,2812
2017-07-28T06:05:48.200Z,2804
2017-07-28T06:06:48.904Z,2796
2017-07-28T06:07:49.613Z,2836
2017-07-28T06:08:50.319Z,2860
2017-07-28T06:09:51.025Z,2864
2017-07-28T06:10:51.979Z,2824
2017-07-28T06:11:52.691Z,2716
2017-07-28T06:12:53.400Z,2660
2017-07-28T06:13:54.103Z,2612
2017-07-28T06:14:54.808Z,2612
2017-07-28T06:15:55.768Z,2608
2017-07-28T06:16:56.471Z,2616
2017-07-28T06:17:57.180Z,2672
2017-07-28T06:18:57.883Z,2728
2017-07-28T06:19:58.587Z,2852
2017-07-28T06:20:59.540Z,3184
2017-07-28T06:22:00.244Z,3456
2017-07-28T06:23:00.954Z,3732
2017-07-28T06:24:01.661Z,3900
2017-07-28T06:25:02.364Z,4036
2017-07-28T06:26:03.316Z,3956
2017-07-28T06:27:04.023Z,3852
2017-07-28T06:28:04.723Z,3840
2017-07-28T06:29:05.426Z,3900
2017-07-28T06:30:06.127Z,3964
2017-07-28T06:31:07.086Z,4036
2017-07-28T06:32:07.786Z,4164
2017-07-28T06:33:08.495Z,4132
2017-07-28T06:34:09.205Z,4124
2017-07-28T06:35:09.906Z,4272
2017-07-28T06:36:10.859Z,4008
2017-07-28T06:37:11.561Z,4024
2017-07-28T06:38:12.263Z,3840
2017-07-28T06:39:12.969Z,3856
2017-07-28T06:40:13.684Z,3864
2017-07-28T06:41:14.392Z,3884
2017-07-28T06:42:15.097Z,3924
2017-07-28T06:43:15.798Z,4164
2017-07-28T06:44:16.501Z,4364
2017-07-28T06:45:17.201Z,4480
2017-07-28T06:46:18.155Z,4536
2017-07-28T06:47:18.858Z,4588
2017-07-28T06:48:19.563Z,4496
2017-07-28T06:49:20.269Z,4456
2017-07-28T06:50:20.968Z,4436
2017-07-28T06:51:21.922Z,4348
2017-07-28T06:52:22.624Z,4320
2017-07-28T06:53:23.327Z,4364
2017-07-28T06:54:24.031Z,4340
2017-07-28T06:55:24.738Z,4344
2017-07-28T06:56:25.442Z,4344
2017-07-28T06:57:26.147Z,4396
2017-07-28T06:58:26.849Z,4300
2017-07-28T06:59:27.551Z,4220
2017-07-28T07:00:28.255Z,4088
2017-07-28T07:01:29.207Z,4288
2017-07-28T07:02:29.912Z,4388
2017-07-28T07:03:30.617Z,4424
2017-07-28T07:04:31.322Z,4520
2017-07-28T07:05:32.023Z,4652
2017-07-28T07:06:32.982Z,4800
2017-07-28T07:07:33.685Z,5044
2017-07-28T07:08:34.386Z,5100
2017-07-28T07:09:35.090Z,5068
2017-07-28T07:10:35.810Z,5076
2017-07-28T07:11:36.762Z,5020
2017-07-28T07:12:37.465Z,4968
2017-07-28T07:13:38.168Z,4984
2017-07-28T07:14:38.875Z,5028
2017-07-28T07:15:39.579Z,5104
2017-07-28T07:16:40.534Z,5148
2017-07-28T07:17:41.236Z,5132
2017-07-28T07:18:41.942Z,5104
2017-07-28T07:19:42.644Z,5048
2017-07-28T07:20:43.348Z,5000
2017-07-28T07:21:44.300Z,5016
2017-07-28T07:22:44.998Z,5052
2017-07-28T07:23:45.703Z,5116
2017-07-28T07:24:46.414Z,5132
2017-07-28T07:25:47.115Z,5340
2017-07-28T07:26:48.068Z,5476
2017-07-28T07:27:48.771Z,5420
2017-07-28T07:28:49.491Z,5456
2017-07-28T07:29:50.202Z,5340
2017-07-28T07:30:50.906Z,5448
2017-07-28T07:31:51.864Z,5496
2017-07-28T07:32:52.571Z,5404
2017-07-28T07:33:53.281Z,5532
2017-07-28T07:34:53.991Z,5472
2017-07-28T07:35:54.694Z,5324
2017-07-28T07:36:55.647Z,5264
2017-07-28T07:37:56.351Z,5208
2017-07-28T07:38:57.056Z,5128
2017-07-28T07:39:57.762Z,5124
2017-07-28T07:40:58.469Z,5116
2017-07-28T07:41:59.176Z,5104
2017-07-28T07:42:59.883Z,5152
2017-07-28T07:44:00.592Z,5208
2017-07-28T07:45:01.294Z,5256
2017-07-28T07:46:02.003Z,5204
2017-07-28T07:47:02.975Z,5052
2017-07-28T07:48:03.681Z,5172
2017-07-28T07:49:04.401Z,5224
2017-07-28T07:50:05.110Z,5052
2017-07-28T07:51:05.815Z,5080
2017-07-28T07:52:06.768Z,5172
2017-07-28T07:53:07.472Z,5140
2017-07-28T07:54:08.178Z,4908
2017-07-28T07:55:08.888Z,4636
2017-07-28T07:56:09.591Z,4408
2017-07-28T07:57:10.457Z,4328
2017-07-28T07:58:11.217Z,4180
2017-07-28T07:59:11.922Z,4092
2017-07-28T08:00:12.630Z,4160
2017-07-28T08:01:13.337Z,4580
2017-07-28T08:02:14.295Z,4736
2017-07-28T08:03:14.999Z,4916
2017-07-28T08:04:15.702Z,4696
2017-07-28T08:05:16.411Z,4272
2017-07-28T08:06:17.119Z,4372
2017-07-28T08:07:18.076Z,4908
2017-07-28T08:08:18.783Z,5536
2017-07-28T08:09:19.491Z,4996
2017-07-28T08:10:20.198Z,4764
2017-07-28T08:11:20.906Z,5612
2017-07-28T08:12:21.862Z,5968
2017-07-28T08:13:22.575Z,5696
2017-07-28T08:14:23.281Z,6260
2017-07-28T08:15:23.996Z,6192
2017-07-28T08:16:24.709Z,5856
2017-07-28T08:17:25.419Z,5128
2017-07-28T08:18:26.122Z,5028
2017-07-28T08:19:26.823Z,4564
2017-07-28T08:20:27.537Z,4348
2017-07-28T08:21:28.241Z,3864
2017-07-28T08:22:29.198Z,3644
2017-07-28T08:23:29.911Z,3528
2017-07-28T08:24:30.619Z,3780
2017-07-28T08:25:31.331Z,4204
2017-07-28T08:26:32.038Z,4568
2017-07-28T08:27:32.993Z,3928
2017-07-28T08:28:33.703Z,3616
2017-07-28T08:29:34.417Z,3832
2017-07-28T08:30:35.124Z,4192
2017-07-28T08:31:35.826Z,4888
2017-07-28T08:32:36.779Z,5228
2017-07-28T08:33:37.491Z,5136
2017-07-28T08:34:38.202Z,5700
2017-07-28T08:35:38.904Z,6208
2017-07-28T08:36:39.606Z,7064
2017-07-28T08:37:40.570Z,7244
2017-07-28T08:38:41.275Z,6700
2017-07-28T08:39:41.986Z,5060
2017-07-28T08:40:42.693Z,4284
2017-07-28T08:41:43.408Z,4128
2017-07-28T08:42:44.367Z,3640
2017-07-28T08:43:45.073Z,3616
2017-07-28T08:44:45.780Z,4296
2017-07-28T08:45:46.483Z,4280
2017-07-28T08:46:47.193Z,5364
2017-07-28T08:47:48.150Z,4712
2017-07-28T08:48:48.859Z,5324
2017-07-28T08:49:49.571Z,4560
2017-07-28T08:50:50.280Z,4548
2017-07-28T08:51:50.983Z,4624
2017-07-28T08:52:51.950Z,4892
2017-07-28T08:53:52.658Z,4788
2017-07-28T08:54:53.365Z,4636
2017-07-28T08:55:54.071Z,4988
2017-07-28T08:56:54.774Z,5300
2017-07-28T08:57:55.724Z,5840
2017-07-28T08:58:56.429Z,6796
2017-07-28T08:59:57.141Z,7424
2017-07-28T09:00:57.850Z,8000
2017-07-28T09:01:58.562Z,7900
2017-07-28T09:02:59.519Z,7344
2017-07-28T09:04:00.220Z,6752
2017-07-28T09:05:00.923Z,6136
2017-07-28T09:06:01.631Z,5152
2017-07-28T09:07:02.338Z,5452
2017-07-28T09:08:03.295Z,5456
2017-07-28T09:09:04.007Z,5260
2017-07-28T09:10:04.710Z,5068
2017-07-28T09:11:05.419Z,5256
2017-07-28T09:12:06.126Z,5576
2017-07-28T09:13:06.834Z,5992
2017-07-28T09:14:07.537Z,6632
2017-07-28T09:15:08.241Z,6756
2017-07-28T09:16:08.954Z,6576
2017-07-28T09:17:09.661Z,6144
2017-07-28T09:18:10.379Z,5584
2017-07-28T09:19:11.085Z,6328
2017-07-28T09:20:11.797Z,7200
2017-07-28T09:21:12.507Z,8016
2017-07-28T09:22:13.209Z,8104
2017-07-28T09:23:14.161Z,8476
2017-07-28T09:24:14.865Z,8588
2017-07-28T09:25:15.575Z,8276
2017-07-28T09:26:16.281Z,7636
2017-07-28T09:27:16.990Z,7064
2017-07-28T09:28:17.943Z,7096
2017-07-28T09:29:18.654Z,7532
2017-07-28T09:30:19.360Z,7348
2017-07-28T09:31:20.075Z,7496
2017-07-28T09:32:20.803Z,7820
2017-07-28T09:33:21.528Z,8460
2017-07-28T09:34:22.242Z,8184
2017-07-28T09:35:22.958Z,7968
2017-07-28T09:36:23.667Z,8240
2017-07-28T09:37:24.380Z,8672
2017-07-28T09:38:25.351Z,9304
2017-07-28T09:39:26.058Z,9376
2017-07-28T09:40:26.765Z,9516
2017-07-28T09:41:27.475Z,9740
2017-07-28T09:42:28.180Z,10024
2017-07-28T09:43:29.147Z,9916
2017-07-28T09:44:29.850Z,9516
2017-07-28T09:45:30.552Z,9316
2017-07-28T09:46:31.256Z,8868
2017-07-28T09:47:31.959Z,8728
2017-07-28T09:48:32.913Z,8864
2017-07-28T09:49:33.621Z,8876
2017-07-28T09:50:34.332Z,9020
2017-07-28T09:51:35.044Z,9232
2017-07-28T09:52:35.753Z,8948
2017-07-28T09:53:36.712Z,8400
2017-07-28T09:54:37.421Z,8008
2017-07-28T09:55:38.149Z,7440
2017-07-28T09:56:38.855Z,7088
2017-07-28T09:57:39.558Z,7220
2017-07-28T09:58:40.520Z,7224
2017-07-28T09:59:41.228Z,6356
2017-07-28T10:00:41.941Z,6452
2017-07-28T10:01:42.648Z,6896
2017-07-28T10:02:43.377Z,7540
2017-07-28T10:03:44.354Z,7800
2017-07-28T10:04:45.060Z,8736
2017-07-28T10:05:45.773Z,9856
2017-07-28T10:06:46.482Z,10324
2017-07-28T10:07:47.185Z,10776
2017-07-28T10:08:48.139Z,11252
2017-07-28T10:09:48.843Z,11492
2017-07-28T10:10:49.557Z,11776
2017-07-28T10:11:50.268Z,10908
2017-07-28T10:12:50.976Z,10276
2017-07-28T10:13:51.934Z,9432
2017-07-28T10:14:52.645Z,8180
2017-07-28T10:15:53.358Z,7448
2017-07-28T10:16:54.066Z,6712
2017-07-28T10:17:54.779Z,6716
2017-07-28T10:18:55.487Z,6412
2017-07-28T10:19:56.190Z,6504
2017-07-28T10:20:56.896Z,6208
2017-07-28T10:21:57.599Z,6180
2017-07-28T10:22:58.302Z,6500
2017-07-28T10:23:59.022Z,8816
2017-07-28T10:24:59.725Z,9572
2017-07-28T10:26:00.431Z,9664
2017-07-28T10:27:01.139Z,9448
2017-07-28T10:28:01.844Z,8812
2017-07-28T10:29:02.798Z,7744
2017-07-28T10:30:03.507Z,8404
2017-07-28T10:31:04.213Z,8588
2017-07-28T10:32:04.917Z,9420
2017-07-28T10:33:05.623Z,9232
2017-07-28T10:34:06.327Z,9656
2017-07-28T10:35:07.035Z,9420
2017-07-28T10:36:07.750Z,8372
2017-07-28T10:37:08.476Z,8344
2017-07-28T10:38:09.180Z,9124
2017-07-28T10:39:10.136Z,8684
2017-07-28T10:40:10.853Z,8328
2017-07-28T10:41:11.564Z,8032
2017-07-28T10:42:12.271Z,7808
2017-07-28T10:43:12.983Z,7644
2017-07-28T10:44:13.942Z,8664
2017-07-28T10:45:14.663Z,8248
2017-07-28T10:46:15.377Z,7320
2017-07-28T10:47:16.089Z,6768
2017-07-28T10:48:16.799Z,6204
2017-07-28T10:49:17.507Z,6220
2017-07-28T10:50:18.212Z,5684
2017-07-28T10:51:18.912Z,5556
2017-07-28T10:52:19.616Z,5644
2017-07-28T10:53:20.327Z,5868
2017-07-28T10:54:21.283Z,6776
2017-07-28T10:55:21.990Z,7076
2017-07-28T10:56:22.692Z,7520
2017-07-28T10:57:23.401Z,8024
2017-07-28T10:58:24.107Z,10340
2017-07-28T10:59:25.072Z,8984
2017-07-28T11:00:25.777Z,8628
2017-07-28T11:01:26.482Z,9952
2017-07-28T11:02:27.196Z,10648
2017-07-28T11:03:27.900Z,12772
2017-07-28T11:04:28.859Z,11972
2017-07-28T11:05:29.573Z,10844
2017-07-28T11:06:30.281Z,11528
2017-07-28T11:07:30.984Z,10576
2017-07-28T11:08:31.689Z,10996
2017-07-28T11:09:32.649Z,10220
2017-07-28T11:10:33.363Z,10704
2017-07-28T11:11:34.075Z,10868
2017-07-28T11:12:34.778Z,11064
2017-07-28T11:13:35.491Z,9712
2017-07-28T11:14:36.463Z,9172
2017-07-28T11:15:37.171Z,9236
2017-07-28T11:16:37.884Z,8764
2017-07-28T11:17:38.601Z,9196
2017-07-28T11:18:39.314Z,9048
2017-07-28T11:19:40.268Z,9464
2017-07-28T11:20:40.979Z,9844
2017-07-28T11:21:41.688Z,9392
2017-07-28T11:22:42.393Z,9340
2017-07-28T11:23:43.108Z,8780
2017-07-28T11:24:44.075Z,7916
2017-07-28T11:25:44.786Z,7420
2017-07-28T11:26:45.505Z,7468
2017-07-28T11:27:46.211Z,7328
2017-07-28T11:28:46.929Z,7508
2017-07-28T11:29:47.890Z,8004
2017-07-28T11:30:48.598Z,8340
2017-07-28T11:31:49.308Z,8688
2017-07-28T11:32:50.021Z,9648
2017-07-28T11:33:50.725Z,10232
2017-07-28T11:34:51.690Z,8656
2017-07-28T11:35:52.406Z,8916
2017-07-28T11:36:53.118Z,8692
2017-07-28T11:37:53.820Z,8096
2017-07-28T11:38:54.529Z,11808
2017-07-28T11:39:55.488Z,11168
2017-07-28T11:40:56.202Z,7868
2017-07-28T11:41:56.911Z,8548
2017-07-28T11:42:57.621Z,12892
2017-07-28T11:43:58.328Z,12720
2017-07-28T11:44:59.337Z,14780
2017-07-28T11:46:00.046Z,13824
2017-07-28T11:47:00.756Z,8488
2017-07-28T11:48:01.458Z,7372
2017-07-28T11:49:02.172Z,6572
2017-07-28T11:50:03.133Z,4596
2017-07-28T11:51:03.844Z,4576
2017-07-28T11:52:04.549Z,4836
2017-07-28T11:53:05.253Z,6020
2017-07-28T11:54:05.965Z,7020
2017-07-28T11:55:06.921Z,8160
2017-07-28T11:56:07.633Z,7024
2017-07-28T11:57:08.346Z,5284
2017-07-28T11:58:09.117Z,5428
2017-07-28T11:59:09.828Z,5840
2017-07-28T12:00:10.787Z,6196
2017-07-28T12:01:11.505Z,7192
2017-07-28T12:02:12.212Z,7036
2017-07-28T12:03:12.918Z,6432
2017-07-28T12:04:13.626Z,6040
2017-07-28T12:05:14.634Z,5772
2017-07-28T12:06:15.342Z,6032
2017-07-28T12:07:16.050Z,6196
2017-07-28T12:08:16.758Z,5520
2017-07-28T12:09:17.463Z,4956
2017-07-28T12:10:18.422Z,4020
2017-07-28T12:11:19.131Z,4100
2017-07-28T12:12:19.837Z,5728
2017-07-28T12:13:20.545Z,8392
2017-07-28T12:14:21.251Z,10040
2017-07-28T12:15:22.208Z,8816
2017-07-28T12:16:22.931Z,8468
2017-07-28T12:17:23.635Z,11132
2017-07-28T12:18:24.345Z,12040
2017-07-28T12:19:25.047Z,8988
2017-07-28T12:20:25.764Z,10644
2017-07-28T12:21:26.474Z,10548
2017-07-28T12:22:27.194Z,10304
2017-07-28T12:23:27.915Z,10608
2017-07-28T12:24:28.626Z,11028
2017-07-28T12:25:29.600Z,11420
2017-07-28T12:26:30.305Z,12072
2017-07-28T12:27:31.012Z,12660
2017-07-28T12:28:31.723Z,13140
2017-07-28T12:29:32.438Z,13200
2017-07-28T12:30:33.399Z,13424
2017-07-28T12:31:34.106Z,13176
2017-07-28T12:32:34.812Z,13496
2017-07-28T12:33:35.518Z,14216
2017-07-28T12:34:36.236Z,13688
2017-07-28T12:35:37.193Z,15140
2017-07-28T12:36:37.898Z,15060
2017-07-28T12:37:38.607Z,15432
2017-07-28T12:38:39.315Z,14764
2017-07-28T12:39:40.025Z,13824
2017-07-28T12:40:40.988Z,14688
2017-07-28T12:41:41.698Z,14704
2017-07-28T12:42:42.409Z,15380
2017-07-28T12:43:43.117Z,14384
2017-07-28T12:44:43.833Z,13400
2017-07-28T12:45:44.791Z,14204
2017-07-28T12:46:45.497Z,13796
2017-07-28T12:47:46.211Z,12992
2017-07-28T12:48:46.922Z,12904
2017-07-28T12:49:47.633Z,9204
2017-07-28T12:50:48.588Z,13160
2017-07-28T12:51:49.302Z,12528
2017-07-28T12:52:50.013Z,11328
2017-07-28T12:53:50.726Z,11420
2017-07-28T12:54:51.431Z,7192
2017-07-28T12:55:52.145Z,7368
2017-07-28T12:56:52.867Z,6892
2017-07-28T12:57:53.577Z,7416
2017-07-28T12:58:54.283Z,7996
2017-07-28T12:59:54.988Z,8680
2017-07-28T13:00:55.945Z,8824
2017-07-28T13:01:56.660Z,9824
2017-07-28T13:02:57.367Z,12340
2017-07-28T13:03:58.080Z,13940
2017-07-28T13:04:58.791Z,10120
2017-07-28T13:05:59.756Z,7840
2017-07-28T13:07:00.471Z,6260
2017-07-28T13:08:01.181Z,6332
2017-07-28T13:09:01.888Z,6248
2017-07-28T13:10:02.602Z,6168
2017-07-28T13:11:03.560Z,6336
2017-07-28T13:12:04.286Z,6528
2017-07-28T13:13:04.999Z,6676
2017-07-28T13:14:05.710Z,6760
2017-07-28T13:15:06.422Z,6964
2017-07-28T13:16:07.430Z,6576
2017-07-28T13:17:08.144Z,7664
2017-07-28T13:18:08.851Z,9812
2017-07-28T13:19:09.559Z,9856
2017-07-28T13:20:10.270Z,9164
2017-07-28T13:21:11.234Z,8520
2017-07-28T13:22:11.942Z,7132
2017-07-28T13:23:12.653Z,6260
2017-07-28T13:24:13.362Z,5688
2017-07-28T13:25:14.068Z,5932
2017-07-28T13:26:15.031Z,6272
2017-07-28T13:27:15.744Z,7508
2017-07-28T13:28:16.451Z,8608
2017-07-28T13:29:17.115Z,9376
2017-07-28T13:30:17.858Z,8952
2017-07-28T13:31:18.819Z,8584
2017-07-28T13:32:19.540Z,7524
2017-07-28T13:33:20.253Z,7328
2017-07-28T13:34:20.973Z,6300
2017-07-28T13:35:21.688Z,5668
2017-07-28T13:36:22.652Z,6264
2017-07-28T13:37:23.369Z,6488
2017-07-28T13:38:24.060Z,5680
2017-07-28T13:39:24.774Z,6068
2017-07-28T13:40:25.485Z,6424
2017-07-28T13:41:26.441Z,6828
2017-07-28T13:42:27.150Z,6772
2017-07-28T13:43:27.851Z,6580
2017-07-28T13:44:28.581Z,7256
2017-07-28T13:45:29.291Z,8092
2017-07-28T13:46:30.251Z,7500
2017-07-28T13:47:30.958Z,7892
2017-07-28T13:48:31.665Z,9256
2017-07-28T13:49:32.377Z,9808
2017-07-28T13:50:33.085Z,10132